Time;durP1;ratioP1;P1;durP2;ratioP2;P2;SDS_P1;SDS_P2;PMS_P1;PMS_P2;Temp;Humidity;BMP_temperature;BMP_pressure;BME280_temperature;BME280_humidity;BME280_pressure;Samples;Min_cycle;Max_cycle;Signal;HPM_P1;HPM_P2
2021/12/05 00:23:11;;;;;;;18.75;17.45;;;;;;;1.09;99.86;98258.06;10398025;28;20057;-73
2021/12/05 00:39:07;;;;;;;18.98;17.55;;;;;;;1.16;99.01;98267.41;10419526;28;20107;-72
2021/12/05 00:49:29;;;;;;;20.75;19.25;;;;;;;1.11;99.73;98271.84;10401393;28;20046;-73
2021/12/05 01:15:53;;;;;;;9.77;9.13;;;;;;;2.00;100.00;98330.19;10418109;28;20041;-72
2021/12/05 01:20:59;;;;;;;5.15;4.75;;;;;;;2.70;100.00;98320.56;10418287;28;20426;-73
2021/12/05 01:26:08;;;;;;;3.90;3.60;;;;;;;2.94;97.36;98323.38;10400299;28;20045;-73
2021/12/05 01:36:25;;;;;;;3.30;3.10;;;;;;;3.33;92.33;98333.50;10401496;28;20045;-74
2021/12/05 01:42:16;;;;;;;3.05;2.85;;;;;;;3.40;91.89;98335.84;10418336;28;20107;-73
2021/12/05 01:57:47;;;;;;;3.60;3.38;;;;;;;3.46;90.53;98366.84;10417562;28;20069;-73
2021/12/05 02:07:36;;;;;;;3.60;3.40;;;;;;;3.74;89.06;98372.06;10400415;28;20392;-74
2021/12/05 02:08:44;;;;;;;3.65;3.45;;;;;;;3.62;89.88;98384.56;10406406;28;20060;-72
2021/12/05 02:40:05;;;;;;;4.05;3.75;;;;;;;3.88;86.39;98413.22;10407067;28;20412;-74
2021/12/05 02:45:10;;;;;;;3.70;3.45;;;;;;;3.84;86.92;98413.34;10406281;28;20045;-73
2021/12/05 02:50:13;;;;;;;4.28;3.97;;;;;;;3.75;87.50;98414.47;10425240;28;20087;-73
2021/12/05 02:55:25;;;;;;;3.67;3.47;;;;;;;3.90;86.42;98413.19;10407597;28;20042;-73
2021/12/05 03:00:42;;;;;;;4.28;3.97;;;;;;;3.95;86.02;98413.88;10424186;28;20045;-74
2021/12/05 03:05:54;;;;;;;3.80;3.60;;;;;;;3.98;85.26;98414.63;10405724;28;20048;-73
2021/12/05 03:10:57;;;;;;;4.30;4.00;;;;;;;4.02;85.17;98410.19;10405889;28;20053;-73
2021/12/05 03:15:59;;;;;;;3.63;3.42;;;;;;;4.00;84.77;98414.59;10404981;28;20069;-74
2021/12/05 03:21:04;;;;;;;4.97;4.68;;;;;;;3.96;84.76;98398.22;10423444;28;20041;-74
2021/12/05 03:26:13;;;;;;;4.93;4.63;;;;;;;3.87;85.14;98427.13;10423057;28;20372;-74
2021/12/05 03:31:16;;;;;;;4.38;4.07;;;;;;;4.14;83.16;98414.16;10404345;28;20053;-73
2021/12/05 03:36:21;;;;;;;4.63;4.32;;;;;;;4.02;84.00;98426.63;10403895;28;20046;-73
2021/12/05 03:41:24;;;;;;;4.50;4.10;;;;;;;3.95;84.67;98430.34;10403880;28;20076;-73
2021/12/05 03:46:28;;;;;;;4.82;4.25;;;;;;;4.06;83.87;98427.38;10404908;28;20041;-73
2021/12/05 03:51:34;;;;;;;4.38;4.07;;;;;;;4.03;84.54;98449.16;10420791;28;20041;-73
2021/12/05 03:56:37;;;;;;;3.28;3.08;;;;;;;3.90;84.99;98450.44;10386511;28;20045;-74
2021/12/05 04:01:40;;;;;;;4.97;4.68;;;;;;;3.92;84.82;98452.97;10386136;28;20046;-74
2021/12/05 04:06:43;;;;;;;4.95;4.50;;;;;;;3.94;85.02;98456.34;10402722;28;20550;-73
2021/12/05 04:11:56;;;;;;;4.65;4.25;;;;;;;3.87;84.92;98454.84;10419629;28;20041;-73
2021/12/05 04:17:03;;;;;;;3.80;3.50;;;;;;;3.99;84.05;98462.28;10402515;28;20144;-73
2021/12/05 04:22:07;;;;;;;3.63;3.33;;;;;;;4.03;83.60;98461.31;10419794;28;20041;-73
2021/12/05 04:27:10;;;;;;;4.22;3.15;;;;;;;4.06;82.37;98461.19;10419538;28;20029;-73
2021/12/05 04:32:12;;;;;;;4.80;3.55;;;;;;;3.90;83.13;98467.78;10419206;28;20511;-73
2021/12/05 04:37:14;;;;;;;3.20;2.67;;;;;;;3.88;83.51;98473.00;10401570;28;20541;-73
2021/12/05 04:42:16;;;;;;;2.83;2.45;;;;;;;3.94;82.39;98472.84;10419169;28;20038;-73
2021/12/05 04:47:18;;;;;;;5.07;2.78;;;;;;;3.93;81.88;98478.91;10419865;28;20041;-73
2021/12/05 04:52:20;;;;;;;3.58;2.50;;;;;;;3.89;81.86;98490.28;10402795;28;20076;-73
2021/12/05 04:57:22;;;;;;;4.15;2.10;;;;;;;3.87;81.45;98486.06;10400853;28;20091;-73
2021/12/05 05:02:25;;;;;;;3.25;2.15;;;;;;;3.90;80.65;98481.63;10400866;28;20561;-73
2021/12/05 05:07:28;;;;;;;2.95;1.80;;;;;;;3.99;80.14;98486.53;10418737;28;20124;-73
2021/12/05 05:12:29;;;;;;;4.93;2.28;;;;;;;3.95;79.58;98499.69;10418042;28;20045;-74
2021/12/05 05:17:31;;;;;;;3.92;2.25;;;;;;;3.94;79.80;98488.44;10399718;28;20045;-73
2021/12/05 05:27:54;;;;;;;3.22;2.20;;;;;;;3.92;79.27;98513.59;10418020;28;20117;-74
2021/12/05 05:49:18;;;;;;;3.97;2.33;;;;;;;3.90;78.66;98535.34;10417518;28;20060;-74
2021/12/05 05:54:20;;;;;;;4.45;2.45;;;;;;;3.78;78.72;98544.34;10416865;28;20061;-73
2021/12/05 05:59:26;;;;;;;4.75;2.00;;;;;;;3.79;78.09;98552.09;10399931;28;20049;-73
2021/12/05 06:04:28;;;;;;;4.43;2.47;;;;;;;3.86;78.65;98560.59;10416282;28;20100;-73
2021/12/05 06:09:29;;;;;;;7.95;2.40;;;;;;;3.76;78.69;98566.91;10416178;28;20091;-73
2021/12/05 06:14:31;;;;;;;3.53;2.40;;;;;;;3.72;78.99;98580.91;10416333;28;20059;-73
2021/12/05 06:19:33;;;;;;;5.10;2.08;;;;;;;3.66;78.96;98587.09;10416082;28;20064;-73
2021/12/05 06:24:36;;;;;;;4.85;2.67;;;;;;;3.64;78.90;98596.69;10398420;28;20048;-73
2021/12/05 06:29:40;;;;;;;4.68;2.17;;;;;;;3.58;78.40;98612.44;10398477;28;20064;-73
2021/12/05 06:40:21;;;;;;;3.92;2.20;;;;;;;3.59;77.85;98624.56;10416535;28;20047;-73
2021/12/05 06:50:43;;;;;;;4.88;2.65;;;;;;;3.52;78.44;98638.59;10416149;28;20129;-73
2021/12/05 06:55:44;;;;;;;3.22;2.35;;;;;;;3.54;77.80;98647.19;10422462;28;20037;-74
2021/12/05 07:00:46;;;;;;;5.30;2.40;;;;;;;3.58;76.81;98647.97;10423908;28;20561;-73
2021/12/05 07:10:56;;;;;;;4.85;2.13;;;;;;;3.41;77.80;98651.88;10422964;28;20033;-73
2021/12/05 07:42:23;;;;;;;3.05;1.98;;;;;;;3.65;75.73;98709.28;10422717;28;20046;-72
2021/12/05 07:47:27;;;;;;;7.03;2.67;;;;;;;3.63;75.76;98717.13;10404461;28;20561;-73
2021/12/05 07:52:30;;;;;;;4.55;2.42;;;;;;;3.60;75.42;98724.16;10422271;28;20049;-73
2021/12/05 07:57:42;;;;;;;3.67;2.67;;;;;;;3.66;75.37;98717.03;10422297;28;20041;-73
2021/12/05 08:18:47;;;;;;;5.30;2.60;;;;;;;3.81;74.86;98736.63;10420957;28;20050;-73
2021/12/05 08:23:50;;;;;;;3.10;1.83;;;;;;;3.84;74.04;98733.91;10419786;28;20052;-72
2021/12/05 09:22:35;;;;;;;5.70;2.35;;;;;;;4.11;71.26;98799.97;10424327;28;20050;-71
2021/12/05 10:15:54;;;;;;;4.45;1.70;;;;;;;4.51;70.21;98824.94;10419495;28;20557;-71
2021/12/05 10:37:13;;;;;;;7.72;1.50;;;;;;;4.79;69.45;98818.09;10467179;28;20498;-71
2021/12/05 10:42:37;;;;;;;5.28;1.67;;;;;;;4.81;69.58;98812.84;10466151;28;20044;-71
2021/12/05 10:47:45;;;;;;;4.53;1.45;;;;;;;4.72;69.69;98819.16;10448748;28;20519;-71
2021/12/05 10:52:47;;;;;;;3.60;1.27;;;;;;;4.75;69.50;98813.03;10451218;28;20048;-71
2021/12/05 10:57:50;;;;;;;5.38;1.40;;;;;;;4.85;69.11;98806.66;10423598;28;20454;-71
2021/12/05 11:02:52;;;;;;;2.72;1.25;;;;;;;5.10;68.26;98813.78;10423988;28;20037;-71
2021/12/05 11:07:54;;;;;;;2.83;1.00;;;;;;;5.20;68.37;98810.84;10424072;28;20407;-72
2021/12/05 11:12:55;;;;;;;4.97;1.23;;;;;;;5.27;68.28;98809.78;10424250;28;20049;-72
2021/12/05 11:17:59;;;;;;;3.25;1.58;;;;;;;5.19;68.49;98806.53;10424020;28;20056;-71
2021/12/05 11:23:01;;;;;;;3.25;1.23;;;;;;;5.17;67.97;98813.53;10423744;28;20041;-72
2021/12/05 11:28:08;;;;;;;8.30;1.40;;;;;;;5.30;66.83;98824.44;10405619;28;20117;-71
2021/12/05 11:33:19;;;;;;;;;;;;;;;5.25;67.01;98824.59;10405482;28;20474;-71
2021/12/05 11:38:25;;;;;;;4.25;1.60;;;;;;;5.16;66.79;98834.44;10422263;28;19921;-72
2021/12/05 11:43:35;;;;;;;5.63;2.20;;;;;;;4.86;68.90;98839.59;10405253;28;20099;-72
2021/12/05 11:48:48;;;;;;;8.13;1.80;;;;;;;5.04;67.27;98840.84;10405697;28;20041;-72
2021/12/05 11:54:00;;;;;;;4.40;1.65;;;;;;;4.92;68.86;98843.81;10422521;28;20053;-71
2021/12/05 11:59:06;;;;;;;12.10;3.50;;;;;;;4.95;68.61;98854.97;10404300;28;20037;-72
2021/12/05 12:04:11;;;;;;;3.28;1.30;;;;;;;5.10;68.13;98858.91;10421047;28;20046;-72
2021/12/05 12:09:14;;;;;;;4.40;1.88;;;;;;;5.13;68.49;98857.94;10420904;28;20041;-72
2021/12/05 12:14:15;;;;;;;4.07;1.77;;;;;;;5.21;67.49;98854.22;10402634;28;20458;-71
2021/12/05 12:19:21;;;;;;;7.90;1.70;;;;;;;5.16;67.97;98866.53;10420457;28;20053;-73
2021/12/05 12:24:24;;;;;;;4.68;1.67;;;;;;;5.33;67.24;98855.63;10420103;28;20064;-71
2021/12/05 12:29:27;;;;;;;4.63;1.35;;;;;;;5.28;68.30;98857.53;10421094;28;20045;-72
2021/12/05 12:34:29;;;;;;;5.00;1.50;;;;;;;5.57;67.36;98847.06;10420802;28;20603;-72
2021/12/05 12:39:36;;;;;;;5.10;1.50;;;;;;;5.17;67.85;98854.38;10420313;28;20052;-71
2021/12/05 12:44:37;;;;;;;5.13;1.83;;;;;;;4.96;68.11;98855.84;10402935;28;20045;-72
2021/12/05 12:49:40;;;;;;;3.75;1.50;;;;;;;5.05;68.24;98863.41;10428476;28;20296;-72
2021/12/05 12:54:44;;;;;;;5.03;2.55;;;;;;;4.92;68.80;98859.44;10418808;28;20046;-71
2021/12/05 13:00:08;;;;;;;6.78;1.70;;;;;;;5.06;67.75;98872.91;10425727;28;20068;-71
2021/12/05 13:07:21;;;;;;;10.05;1.95;;;;;;;4.92;68.86;98885.47;10460881;28;20037;-71
2021/12/05 13:10:46;;;;;;;5.60;1.88;;;;;;;4.99;68.73;98876.56;10427145;28;20136;-71
2021/12/05 13:16:00;;;;;;;4.65;1.98;;;;;;;4.71;70.82;98879.94;10442761;28;20402;-71
2021/12/05 13:21:13;;;;;;;4.43;1.73;;;;;;;4.99;69.06;98872.22;10460862;28;20045;-71
2021/12/05 13:26:33;;;;;;;4.47;2.03;;;;;;;4.97;69.77;98875.78;10459570;28;20072;-71
2021/12/05 13:31:49;;;;;;;5.78;1.75;;;;;;;5.05;69.67;98884.25;10440920;28;20154;-71
2021/12/05 13:37:22;;;;;;;8.03;2.23;;;;;;;5.28;68.05;98896.59;10459416;28;20068;-71
2021/12/05 13:42:42;;;;;;;3.47;1.50;;;;;;;5.20;68.38;98907.25;10458627;28;20041;-71
2021/12/05 13:47:52;;;;;;;5.72;2.10;;;;;;;5.18;68.99;98921.19;10458309;28;20079;-70
2021/12/05 13:53:03;;;;;;;6.28;1.65;;;;;;;5.07;69.37;98937.97;10458135;28;20045;-71
2021/12/05 13:58:23;;;;;;;6.35;2.15;;;;;;;4.91;71.09;98948.84;10458631;28;20437;-72
2021/12/05 14:03:44;;;;;;;5.03;2.03;;;;;;;4.85;71.37;98952.47;10461227;28;20077;-72
2021/12/05 14:08:45;;;;;;;5.15;1.58;;;;;;;4.81;70.75;98967.31;10448874;28;20407;-71
2021/12/05 14:13:47;;;;;;;3.40;1.50;;;;;;;4.61;71.54;98976.53;10466260;28;20055;-72
2021/12/05 14:18:54;;;;;;;6.07;2.05;;;;;;;4.52;72.02;98982.81;10467082;28;20049;-70
2021/12/05 14:23:58;;;;;;;11.23;2.03;;;;;;;4.57;71.85;98987.91;10466996;28;20045;-71
2021/12/05 14:29:19;;;;;;;34.28;20.10;;;;;;;4.96;69.64;98981.69;10465362;28;20107;-71
2021/12/05 14:34:21;;;;;;;14.10;11.27;;;;;;;4.73;70.22;98984.00;10465369;28;20048;-71
2021/12/05 14:39:26;;;;;;;5.70;2.00;;;;;;;4.38;72.09;98992.66;10465125;28;20037;-70
2021/12/05 14:44:29;;;;;;;4.60;1.95;;;;;;;4.30;72.72;99000.66;10465246;28;20053;-71
2021/12/05 14:49:34;;;;;;;8.65;5.53;;;;;;;4.33;72.70;99007.53;10447665;28;20041;-72
2021/12/05 14:54:38;;;;;;;9.32;7.35;;;;;;;4.46;72.08;99007.22;10449491;28;20045;-71
2021/12/05 14:59:42;;;;;;;10.20;3.22;;;;;;;4.01;73.88;99007.34;10434176;28;20036;-71
2021/12/05 15:04:53;;;;;;;5.72;2.80;;;;;;;3.78;75.22;99012.19;10447580;28;20080;-71
2021/12/05 15:09:57;;;;;;;6.72;2.65;;;;;;;3.80;74.91;99031.22;10441541;28;20046;-71
2021/12/05 15:15:03;;;;;;;3.83;2.22;;;;;;;3.65;75.68;99024.59;10422886;28;20095;-70
2021/12/05 15:20:09;;;;;;;6.15;3.15;;;;;;;3.56;76.17;99024.75;10422510;28;20040;-71
2021/12/05 15:25:18;;;;;;;10.20;7.93;;;;;;;3.76;75.92;99024.34;10405225;28;20136;-71
2021/12/05 15:30:28;;;;;;;7.57;4.33;;;;;;;3.72;76.00;99030.53;10423246;28;20076;-70
2021/12/05 15:35:31;;;;;;;7.88;4.07;;;;;;;3.79;76.23;99025.16;10421616;28;21910;-71
2021/12/05 15:40:35;;;;;;;6.25;3.92;;;;;;;3.80;75.74;99021.66;10404168;28;20038;-72
2021/12/05 15:45:39;;;;;;;8.13;3.75;;;;;;;3.70;76.23;99038.34;10404090;28;20102;-71
2021/12/05 15:50:41;;;;;;;8.10;2.95;;;;;;;3.46;77.08;99037.09;10421125;28;20395;-71
2021/12/05 15:55:50;;;;;;;4.10;2.83;;;;;;;3.28;78.25;99033.09;10403691;28;20100;-71
2021/12/05 16:00:58;;;;;;;7.22;4.00;;;;;;;3.24;78.68;99038.38;10443655;28;20045;-72
2021/12/05 16:06:01;;;;;;;6.35;4.07;;;;;;;3.39;78.68;99042.41;10464260;28;20128;-71
2021/12/05 16:11:10;;;;;;;9.80;5.20;;;;;;;3.56;77.57;99050.75;10463899;28;20052;-71
2021/12/05 16:16:20;;;;;;;9.25;5.40;;;;;;;3.54;77.47;99053.38;10463166;28;20486;-72
2021/12/05 16:21:26;;;;;;;7.35;4.70;;;;;;;3.26;78.08;99055.63;10462899;28;20057;-71
2021/12/05 16:26:29;;;;;;;9.55;4.53;;;;;;;3.38;78.12;99059.75;10461291;28;20399;-71
2021/12/05 16:31:38;;;;;;;5.55;4.03;;;;;;;3.13;78.71;99059.31;10461383;28;20107;-72
2021/12/05 16:36:46;;;;;;;13.90;5.25;;;;;;;2.89;79.94;99073.56;10461765;28;20041;-71
2021/12/05 16:41:51;;;;;;;12.57;10.48;;;;;;;3.01;80.29;99075.97;10445333;28;20124;-72
2021/12/05 16:46:55;;;;;;;8.70;5.55;;;;;;;3.19;78.55;99076.56;10444349;28;20128;-71
2021/12/05 16:52:03;;;;;;;9.80;5.15;;;;;;;2.93;79.96;99095.16;10444428;28;20049;-71
2021/12/05 16:57:24;;;;;;;7.80;6.40;;;;;;;2.81;80.34;99097.94;10461900;28;20041;-72
2021/12/05 17:02:27;;;;;;;9.98;5.18;;;;;;;2.80;81.18;99096.22;10461258;28;20091;-72
2021/12/05 17:07:57;;;;;;;7.32;4.97;;;;;;;2.92;80.88;99099.50;10442452;28;20404;-72
2021/12/05 17:13:19;;;;;;;14.75;10.25;;;;;;;3.34;78.17;99101.38;10461327;28;20052;-71
2021/12/05 17:18:28;;;;;;;9.55;8.55;;;;;;;3.22;78.19;99105.91;10459722;28;20048;-72
2021/12/05 17:23:34;;;;;;;10.50;8.52;;;;;;;2.79;79.21;99116.13;10460471;28;20450;-72
2021/12/05 17:29:19;;;;;;;16.45;9.32;;;;;;;2.40;81.50;99122.75;10442074;28;20107;-72
2021/12/05 17:34:33;;;;;;;8.27;7.15;;;;;;;2.46;80.92;99127.84;10293241;28;20055;-72
2021/12/05 17:39:39;;;;;;;9.20;5.78;;;;;;;2.33;81.94;99127.13;10293754;28;20055;-71
2021/12/05 17:44:43;;;;;;;8.27;5.70;;;;;;;2.39;82.27;99147.81;10294145;28;20549;-71
2021/12/05 17:49:48;;;;;;;12.90;9.98;;;;;;;2.76;81.03;99142.13;10276561;28;20238;-72
2021/12/05 17:54:57;;;;;;;68.38;38.70;;;;;;;2.85;80.05;99148.91;10275595;28;20053;-72
2021/12/05 18:00:12;;;;;;;12.38;9.63;;;;;;;2.61;80.83;99150.09;10276421;28;20046;-72
2021/12/05 18:05:28;;;;;;;13.38;11.95;;;;;;;2.43;81.97;99159.84;10393210;28;20149;-72
2021/12/05 18:10:32;;;;;;;29.60;15.50;;;;;;;2.57;82.09;99156.22;10418362;28;20034;-71
2021/12/05 18:15:36;;;;;;;14.25;12.02;;;;;;;2.53;81.76;99166.66;10392480;28;20053;-72
2021/12/05 18:20:38;;;;;;;16.38;10.68;;;;;;;2.38;82.70;99171.16;10400835;28;20095;-72
2021/12/05 18:25:41;;;;;;;15.77;11.63;;;;;;;2.37;82.73;99174.66;10418466;28;20476;-74
2021/12/05 18:30:43;;;;;;;12.80;10.00;;;;;;;2.33;83.14;99181.59;10417637;28;20056;-72
2021/12/05 18:35:45;;;;;;;9.93;8.93;;;;;;;2.33;83.38;99179.00;10418003;28;20384;-72
2021/12/05 18:40:49;;;;;;;13.73;8.98;;;;;;;2.31;83.40;99195.47;10417931;28;20037;-71
2021/12/05 18:45:55;;;;;;;12.75;8.63;;;;;;;2.40;83.31;99204.00;10417610;28;20434;-72
2021/12/05 18:50:58;;;;;;;8.40;7.35;;;;;;;2.46;83.39;99211.69;10404446;28;20049;-72
2021/12/05 18:56:00;;;;;;;13.45;9.38;;;;;;;2.77;82.27;99219.09;10424655;28;20053;-72
2021/12/05 19:06:30;;;;;;;11.57;7.97;;;;;;;2.94;82.21;99226.66;10425630;28;20141;-72
2021/12/05 19:11:48;;;;;;;7.93;6.93;;;;;;;2.67;82.48;99233.06;10425616;28;20052;-72
2021/12/05 19:16:54;;;;;;;10.50;8.55;;;;;;;2.53;83.74;99228.91;10426084;28;20037;-71
2021/12/05 19:21:57;;;;;;;13.43;8.23;;;;;;;2.68;83.67;99233.03;10428737;28;20045;-71
2021/12/05 19:27:00;;;;;;;14.73;9.55;;;;;;;2.88;82.78;99231.91;10427242;28;20041;-72
2021/12/05 19:32:05;;;;;;;13.40;9.00;;;;;;;2.92;81.24;99238.78;10412404;28;20053;-73
2021/12/05 19:37:08;;;;;;;14.30;9.57;;;;;;;2.51;83.13;99242.75;10428752;28;20095;-72
2021/12/05 19:42:10;;;;;;;14.57;9.60;;;;;;;2.51;83.79;99245.38;10425142;28;20107;-72
2021/12/05 19:47:12;;;;;;;14.73;9.88;;;;;;;2.42;84.32;99259.28;10424549;28;20033;-71
2021/12/05 19:52:14;;;;;;;10.25;9.15;;;;;;;2.40;84.46;99261.06;10423627;28;20049;-71
2021/12/05 19:57:15;;;;;;;14.18;9.70;;;;;;;2.68;83.96;99284.94;10424312;28;20041;-73
2021/12/05 20:02:17;;;;;;;12.38;8.57;;;;;;;2.75;84.16;99280.56;10423249;28;20052;-71
2021/12/05 20:07:23;;;;;;;16.70;9.23;;;;;;;2.58;84.63;99293.72;10424122;28;20475;-71
2021/12/05 20:12:25;;;;;;;11.68;9.68;;;;;;;2.57;84.61;99280.75;10423018;28;20049;-72
2021/12/05 20:17:27;;;;;;;9.57;8.30;;;;;;;2.49;84.88;99284.31;10422877;28;20056;-72
2021/12/05 20:22:29;;;;;;;10.18;6.60;;;;;;;3.01;82.81;99291.47;10424134;28;20126;-74
2021/12/05 20:27:34;;;;;;;8.35;5.63;;;;;;;3.23;80.95;99280.75;10406598;28;20088;-75
2021/12/05 20:32:36;;;;;;;7.32;6.40;;;;;;;2.99;81.54;99284.56;10423979;28;20064;-74
2021/12/05 20:37:38;;;;;;;8.35;6.70;;;;;;;2.74;82.42;99284.84;10423899;28;20041;-74
2021/12/05 20:42:40;;;;;;;9.65;7.88;;;;;;;2.53;83.58;99291.19;10422168;28;20128;-74
2021/12/05 20:47:41;;;;;;;8.93;7.90;;;;;;;2.54;84.22;99297.22;10423486;28;20096;-74
2021/12/05 20:52:45;;;;;;;9.52;8.07;;;;;;;2.47;84.29;99298.16;10405095;28;20049;-74
2021/12/05 20:57:47;;;;;;;11.07;8.43;;;;;;;2.56;84.35;99295.47;10405104;28;20491;-73
2021/12/05 21:02:49;;;;;;;9.25;7.75;;;;;;;2.50;84.64;99291.19;10406127;28;20054;-75
2021/12/05 21:07:56;;;;;;;10.68;9.43;;;;;;;2.42;84.61;99298.19;10405730;28;20044;-75
2021/12/05 21:12:59;;;;;;;10.13;9.00;;;;;;;2.23;85.84;99297.53;10423228;28;20438;-75
2021/12/05 21:18:00;;;;;;;13.00;8.68;;;;;;;2.15;86.32;99286.38;10423063;28;20046;-75
2021/12/05 21:23:03;;;;;;;12.93;8.60;;;;;;;2.26;86.41;99281.09;10422580;28;20132;-75
2021/12/05 21:28:06;;;;;;;12.93;8.85;;;;;;;2.13;85.75;99285.56;10421871;28;20045;-75
2021/12/05 21:33:08;;;;;;;12.98;10.13;;;;;;;1.96;86.15;99290.88;10420283;28;20107;-74
2021/12/05 21:38:12;;;;;;;11.77;9.98;;;;;;;1.86;87.10;99286.66;10420855;28;20041;-74
2021/12/05 21:43:15;;;;;;;13.10;10.73;;;;;;;1.73;87.58;99287.63;10420583;28;20105;-74
2021/12/05 21:48:17;;;;;;;16.85;10.68;;;;;;;1.82;87.70;99289.28;10402286;28;20192;-74
2021/12/05 21:53:22;;;;;;;17.17;13.40;;;;;;;1.77;88.88;99302.25;10419073;28;20414;-74
2021/12/05 21:58:24;;;;;;;16.42;14.77;;;;;;;1.79;89.85;99315.22;10386336;28;20056;-76
2021/12/05 22:03:29;;;;;;;26.48;15.82;;;;;;;1.94;91.14;99320.28;10423011;28;20476;-74
2021/12/05 22:08:31;;;;;;;28.13;18.05;;;;;;;1.90;91.28;99322.03;10422247;28;20141;-74
2021/12/05 22:13:35;;;;;;;22.52;17.25;;;;;;;1.96;91.59;99327.16;10403407;28;20041;-74
2021/12/05 22:18:44;;;;;;;21.77;17.95;;;;;;;1.97;91.82;99326.28;10421175;28;20047;-74
2021/12/05 22:23:56;;;;;;;26.13;19.05;;;;;;;2.01;91.68;99325.41;10422313;28;20050;-74
2021/12/05 22:29:02;;;;;;;33.58;20.75;;;;;;;2.11;91.52;99330.50;10428323;28;20057;-74
2021/12/05 22:34:06;;;;;;;44.53;23.38;;;;;;;2.07;92.03;99342.63;10411195;28;20045;-74
2021/12/05 22:39:11;;;;;;;33.47;20.90;;;;;;;2.20;92.08;99345.97;10410447;28;20041;-75
2021/12/05 22:44:12;;;;;;;43.75;23.63;;;;;;;2.02;92.47;99352.19;10427190;28;20111;-74
2021/12/05 22:49:14;;;;;;;46.30;23.85;;;;;;;1.98;93.68;99338.38;10409487;28;20057;-74
2021/12/05 22:54:16;;;;;;;49.15;24.85;;;;;;;1.93;94.27;99342.75;10428242;28;20476;-75
2021/12/05 22:59:18;;;;;;;68.85;28.58;;;;;;;1.87;95.01;99353.16;10427097;28;20042;-74
2021/12/05 23:04:22;;;;;;;52.42;27.90;;;;;;;2.12;94.60;99351.22;10411184;28;20056;-74
2021/12/05 23:09:24;;;;;;;61.25;29.02;;;;;;;1.95;94.52;99364.34;10427979;28;20050;-74
2021/12/05 23:14:26;;;;;;;44.15;26.35;;;;;;;1.91;94.57;99367.81;10407892;28;20050;-74
2021/12/05 23:19:28;;;;;;;51.30;25.13;;;;;;;1.77;94.71;99380.88;10425293;28;20541;-74
2021/12/05 23:24:35;;;;;;;55.17;26.35;;;;;;;1.76;94.73;99370.50;10426683;28;20149;-74
2021/12/05 23:29:38;;;;;;;60.08;28.77;;;;;;;1.73;95.45;99380.91;10408258;28;20164;-74
2021/12/05 23:34:41;;;;;;;43.20;26.20;;;;;;;1.86;94.64;99373.88;10426493;28;20045;-74
2021/12/05 23:39:43;;;;;;;49.60;27.17;;;;;;;2.01;94.65;99378.97;10425649;28;20120;-74
2021/12/05 23:44:45;;;;;;;43.03;24.42;;;;;;;2.13;92.32;99378.88;10407471;28;20077;-74
2021/12/05 23:49:47;;;;;;;40.80;24.92;;;;;;;2.38;91.11;99386.44;10425654;28;20045;-74
2021/12/05 23:54:49;;;;;;;41.75;25.27;;;;;;;2.21;91.89;99381.38;10425498;28;20523;-74
2021/12/05 23:59:50;;;;;;;46.05;26.00;;;;;;;2.19;90.64;99388.34;10425092;28;20535;-75
